sensor_id;sensor_type;location;lat;lon;timestamp;pressure;altitude;pressure_sealevel;temperature;humidity
51227;BME280;42714;48.260;10.980;2023-05-20T00:00:51;970.3;;;14.0;100.0
51227;BME280;42714;48.260;10.980;2023-05-20T00:05:52;970.3;;;13.9;100.0
51227;BME280;42714;48.260;10.980;2023-05-20T00:10:53;970.3;;;13.8;100.0
51227;BME280;42714;48.260;10.980;2023-05-20T00:15:54;970.3;;;13.7;100.0
51227;BME280;42714;48.260;10.980;2023-05-20T00:20:55;970.3;;;13.6;100.0
51227;BME280;42714;48.260;10.980;2023-05-20T00:25:56;970.3;;;13.5;100.0
51227;BME280;42714;48.260;10.980;2023-05-20T00:30:57;970.3;;;13.3;100.0
51227;BME280;42714;48.260;10.980;2023-05-20T00:35:58;970.2;;;13.4;100.0
51227;BME280;42714;48.260;10.980;2023-05-20T00:40:59;970.2;;;13.2;100.0
51227;BME280;42714;48.260;10.980;2023-05-20T00:46:00;970.2;;;13.1;100.0
51227;BME280;42714;48.260;10.980;2023-05-20T00:51:01;970.2;;;13.2;100.0
51227;BME280;42714;48.260;10.980;2023-05-20T00:56:03;970.2;;;13.3;100.0
51227;BME280;42714;48.260;10.980;2023-05-20T01:01:03;970.3;;;13.4;100.0
51227;BME280;42714;48.260;10.980;2023-05-20T01:06:03;970.2;;;13.5;100.0
51227;BME280;42714;48.260;10.980;2023-05-20T01:11:07;970.1;;;13.6;100.0
51227;BME280;42714;48.260;10.980;2023-05-20T01:16:06;970.1;;;13.6;100.0
51227;BME280;42714;48.260;10.980;2023-05-20T01:21:06;970.1;;;13.6;100.0
51227;BME280;42714;48.260;10.980;2023-05-20T01:26:08;970.1;;;13.6;100.0
51227;BME280;42714;48.260;10.980;2023-05-20T01:31:09;970.1;;;13.7;100.0
51227;BME280;42714;48.260;10.980;2023-05-20T01:36:09;970.0;;;13.7;100.0
51227;BME280;42714;48.260;10.980;2023-05-20T01:41:10;970.0;;;13.7;100.0
51227;BME280;42714;48.260;10.980;2023-05-20T01:46:11;970.1;;;13.7;100.0
51227;BME280;42714;48.260;10.980;2023-05-20T01:51:12;970.0;;;13.7;100.0
51227;BME280;42714;48.260;10.980;2023-05-20T01:56:14;969.9;;;13.7;100.0
51227;BME280;42714;48.260;10.980;2023-05-20T02:01:15;970.0;;;13.7;100.0
51227;BME280;42714;48.260;10.980;2023-05-20T02:06:16;970.0;;;13.7;100.0
51227;BME280;42714;48.260;10.980;2023-05-20T02:11:17;970.0;;;13.7;100.0
51227;BME280;42714;48.260;10.980;2023-05-20T02:16:18;970.0;;;13.7;100.0
51227;BME280;42714;48.260;10.980;2023-05-20T02:21:19;970.0;;;13.6;100.0
51227;BME280;42714;48.260;10.980;2023-05-20T02:26:20;969.9;;;13.6;100.0
51227;BME280;42714;48.260;10.980;2023-05-20T02:31:21;969.8;;;13.6;100.0
51227;BME280;42714;48.260;10.980;2023-05-20T02:36:22;969.9;;;13.6;100.0
51227;BME280;42714;48.260;10.980;2023-05-20T02:41:23;969.8;;;13.7;100.0
51227;BME280;42714;48.260;10.980;2023-05-20T02:46:24;969.7;;;13.6;100.0
51227;BME280;42714;48.260;10.980;2023-05-20T02:51:25;969.7;;;13.7;100.0
51227;BME280;42714;48.260;10.980;2023-05-20T02:56:26;969.8;;;13.6;100.0
51227;BME280;42714;48.260;10.980;2023-05-20T03:01:27;969.8;;;13.6;100.0
51227;BME280;42714;48.260;10.980;2023-05-20T03:06:28;970.0;;;13.5;100.0
51227;BME280;42714;48.260;10.980;2023-05-20T03:11:29;970.1;;;13.6;100.0
51227;BME280;42714;48.260;10.980;2023-05-20T03:16:30;970.1;;;13.7;100.0
51227;BME280;42714;48.260;10.980;2023-05-20T03:21:31;970.0;;;13.5;100.0
51227;BME280;42714;48.260;10.980;2023-05-20T03:26:32;970.0;;;13.6;100.0
51227;BME280;42714;48.260;10.980;2023-05-20T03:31:33;969.9;;;13.4;100.0
51227;BME280;42714;48.260;10.980;2023-05-20T03:36:34;970.0;;;13.4;100.0
51227;BME280;42714;48.260;10.980;2023-05-20T03:41:35;969.9;;;13.5;100.0
51227;BME280;42714;48.260;10.980;2023-05-20T03:46:36;969.9;;;13.5;100.0
51227;BME280;42714;48.260;10.980;2023-05-20T03:51:37;970.0;;;13.5;100.0
51227;BME280;42714;48.260;10.980;2023-05-20T03:56:38;970.0;;;13.4;100.0
51227;BME280;42714;48.260;10.980;2023-05-20T04:01:39;969.9;;;13.4;100.0
51227;BME280;42714;48.260;10.980;2023-05-20T04:06:40;969.8;;;13.4;100.0
51227;BME280;42714;48.260;10.980;2023-05-20T04:11:41;969.9;;;13.3;100.0
51227;BME280;42714;48.260;10.980;2023-05-20T04:16:42;969.9;;;13.4;100.0
51227;BME280;42714;48.260;10.980;2023-05-20T04:21:43;969.9;;;13.4;100.0
51227;BME280;42714;48.260;10.980;2023-05-20T04:26:44;969.8;;;13.4;100.0
51227;BME280;42714;48.260;10.980;2023-05-20T04:31:45;969.7;;;13.4;100.0
51227;BME280;42714;48.260;10.980;2023-05-20T04:36:46;969.8;;;13.4;100.0
51227;BME280;42714;48.260;10.980;2023-05-20T04:41:47;969.8;;;13.4;100.0
51227;BME280;42714;48.260;10.980;2023-05-20T04:46:48;969.8;;;13.4;100.0
51227;BME280;42714;48.260;10.980;2023-05-20T04:51:49;969.7;;;13.5;100.0
51227;BME280;42714;48.260;10.980;2023-05-20T04:56:50;969.7;;;13.5;100.0
51227;BME280;42714;48.260;10.980;2023-05-20T05:01:51;969.8;;;13.6;100.0
51227;BME280;42714;48.260;10.980;2023-05-20T05:06:52;969.8;;;13.7;100.0
51227;BME280;42714;48.260;10.980;2023-05-20T05:11:53;969.8;;;13.7;100.0
51227;BME280;42714;48.260;10.980;2023-05-20T05:16:54;969.8;;;13.6;100.0
51227;BME280;42714;48.260;10.980;2023-05-20T05:21:55;969.8;;;13.6;100.0
51227;BME280;42714;48.260;10.980;2023-05-20T05:26:56;969.8;;;13.7;100.0
51227;BME280;42714;48.260;10.980;2023-05-20T05:31:57;969.8;;;13.8;100.0
51227;BME280;42714;48.260;10.980;2023-05-20T05:36:58;969.7;;;13.8;100.0
51227;BME280;42714;48.260;10.980;2023-05-20T05:41:59;969.7;;;13.9;100.0
51227;BME280;42714;48.260;10.980;2023-05-20T05:47:00;969.7;;;14.0;100.0
51227;BME280;42714;48.260;10.980;2023-05-20T05:52:01;969.6;;;13.9;100.0
51227;BME280;42714;48.260;10.980;2023-05-20T05:57:02;969.6;;;14.1;100.0
51227;BME280;42714;48.260;10.980;2023-05-20T06:02:03;969.7;;;14.1;100.0
51227;BME280;42714;48.260;10.980;2023-05-20T06:07:04;969.7;;;14.0;100.0
51227;BME280;42714;48.260;10.980;2023-05-20T06:12:05;969.6;;;14.2;100.0
51227;BME280;42714;48.260;10.980;2023-05-20T06:17:06;969.7;;;14.3;100.0
51227;BME280;42714;48.260;10.980;2023-05-20T06:22:07;969.8;;;14.4;100.0
51227;BME280;42714;48.260;10.980;2023-05-20T06:27:08;969.7;;;14.4;100.0
51227;BME280;42714;48.260;10.980;2023-05-20T06:32:09;969.7;;;14.5;100.0
51227;BME280;42714;48.260;10.980;2023-05-20T06:37:10;969.7;;;14.6;100.0
51227;BME280;42714;48.260;10.980;2023-05-20T06:42:11;969.6;;;14.7;100.0
51227;BME280;42714;48.260;10.980;2023-05-20T06:47:13;969.7;;;14.9;100.0
51227;BME280;42714;48.260;10.980;2023-05-20T06:52:13;969.7;;;14.8;100.0
51227;BME280;42714;48.260;10.980;2023-05-20T06:57:14;969.8;;;14.8;100.0
51227;BME280;42714;48.260;10.980;2023-05-20T07:02:15;969.6;;;14.9;100.0
51227;BME280;42714;48.260;10.980;2023-05-20T07:07:16;969.6;;;15.2;100.0
51227;BME280;42714;48.260;10.980;2023-05-20T07:12:17;969.6;;;15.1;100.0
51227;BME280;42714;48.260;10.980;2023-05-20T07:17:18;969.5;;;15.2;100.0
51227;BME280;42714;48.260;10.980;2023-05-20T07:22:19;969.5;;;15.4;100.0
51227;BME280;42714;48.260;10.980;2023-05-20T07:27:20;969.4;;;15.7;100.0
51227;BME280;42714;48.260;10.980;2023-05-20T07:32:21;969.3;;;16.2;100.0
51227;BME280;42714;48.260;10.980;2023-05-20T07:37:22;969.3;;;16.4;100.0
51227;BME280;42714;48.260;10.980;2023-05-20T07:42:23;969.4;;;16.7;100.0
51227;BME280;42714;48.260;10.980;2023-05-20T07:47:24;969.4;;;16.9;100.0
51227;BME280;42714;48.260;10.980;2023-05-20T07:52:25;969.4;;;17.1;100.0
51227;BME280;42714;48.260;10.980;2023-05-20T07:57:26;969.2;;;18.5;100.0
51227;BME280;42714;48.260;10.980;2023-05-20T08:02:27;969.1;;;18.4;100.0
51227;BME280;42714;48.260;10.980;2023-05-20T08:07:28;969.2;;;18.5;100.0
51227;BME280;42714;48.260;10.980;2023-05-20T08:12:29;969.1;;;19.3;100.0
51227;BME280;42714;48.260;10.980;2023-05-20T08:17:31;969.1;;;19.8;100.0
51227;BME280;42714;48.260;10.980;2023-05-20T08:22:31;969.2;;;19.8;100.0
51227;BME280;42714;48.260;10.980;2023-05-20T08:27:32;969.1;;;19.4;100.0
51227;BME280;42714;48.260;10.980;2023-05-20T08:32:33;969.1;;;20.0;100.0
51227;BME280;42714;48.260;10.980;2023-05-20T08:37:34;969.1;;;22.1;84.7
51227;BME280;42714;48.260;10.980;2023-05-20T08:42:35;969.0;;;23.4;71.8
51227;BME280;42714;48.260;10.980;2023-05-20T08:47:37;969.0;;;24.3;64.1
51227;BME280;42714;48.260;10.980;2023-05-20T08:52:41;969.0;;;24.8;57.8
51227;BME280;42714;48.260;10.980;2023-05-20T08:57:38;968.9;;;25.9;55.1
51227;BME280;42714;48.260;10.980;2023-05-20T09:02:39;968.9;;;26.6;49.7
51227;BME280;42714;48.260;10.980;2023-05-20T09:07:40;968.8;;;26.8;47.4
51227;BME280;42714;48.260;10.980;2023-05-20T09:12:41;968.7;;;27.1;48.4
51227;BME280;42714;48.260;10.980;2023-05-20T09:17:42;968.7;;;28.5;43.1
51227;BME280;42714;48.260;10.980;2023-05-20T09:22:43;968.6;;;28.6;42.1
51227;BME280;42714;48.260;10.980;2023-05-20T09:27:44;968.6;;;28.4;43.9
51227;BME280;42714;48.260;10.980;2023-05-20T09:32:51;968.6;;;27.9;45.0
51227;BME280;42714;48.260;10.980;2023-05-20T09:37:46;968.6;;;27.8;43.4
51227;BME280;42714;48.260;10.980;2023-05-20T09:42:51;968.6;;;28.6;41.9
51227;BME280;42714;48.260;10.980;2023-05-20T09:47:49;968.7;;;26.9;42.7
51227;BME280;42714;48.260;10.980;2023-05-20T09:52:49;968.8;;;24.8;49.5
51227;BME280;42714;48.260;10.980;2023-05-20T09:57:50;968.7;;;26.1;47.0
51227;BME280;42714;48.260;10.980;2023-05-20T10:02:51;968.6;;;25.7;46.3
51227;BME280;42714;48.260;10.980;2023-05-20T10:07:59;968.7;;;26.7;44.9
51227;BME280;42714;48.260;10.980;2023-05-20T10:12:57;968.5;;;27.3;43.1
51227;BME280;42714;48.260;10.980;2023-05-20T10:22:55;968.5;;;25.7;46.1
51227;BME280;42714;48.260;10.980;2023-05-20T10:33:01;968.5;;;25.3;49.3
51227;BME280;42714;48.260;10.980;2023-05-20T10:43:07;968.3;;;26.1;46.0
51227;BME280;42714;48.260;10.980;2023-05-20T10:48:00;968.3;;;27.5;43.4
51227;BME280;42714;48.260;10.980;2023-05-20T10:53:02;968.3;;;26.6;44.4
51227;BME280;42714;48.260;10.980;2023-05-20T10:58:02;968.2;;;25.4;48.4
51227;BME280;42714;48.260;10.980;2023-05-20T11:03:03;968.2;;;24.8;50.6
51227;BME280;42714;48.260;10.980;2023-05-20T11:08:08;968.1;;;24.8;50.5
51227;BME280;42714;48.260;10.980;2023-05-20T11:13:05;968.0;;;24.7;52.9
51227;BME280;42714;48.260;10.980;2023-05-20T11:18:06;968.0;;;24.7;50.6
51227;BME280;42714;48.260;10.980;2023-05-20T11:23:10;968.0;;;24.2;52.1
51227;BME280;42714;48.260;10.980;2023-05-20T11:28:11;968.0;;;24.3;54.3
51227;BME280;42714;48.260;10.980;2023-05-20T11:33:10;968.0;;;24.4;54.6
51227;BME280;42714;48.260;10.980;2023-05-20T11:38:10;967.9;;;24.6;52.9
51227;BME280;42714;48.260;10.980;2023-05-20T11:43:12;967.8;;;26.1;48.1
51227;BME280;42714;48.260;10.980;2023-05-20T11:48:12;967.6;;;28.9;41.5
51227;BME280;42714;48.260;10.980;2023-05-20T11:53:14;967.5;;;31.8;34.9
51227;BME280;42714;48.260;10.980;2023-05-20T11:58:15;967.4;;;32.7;31.5
51227;BME280;42714;48.260;10.980;2023-05-20T12:03:15;967.4;;;32.9;31.6
51227;BME280;42714;48.260;10.980;2023-05-20T12:08:16;967.4;;;33.8;29.0
51227;BME280;42714;48.260;10.980;2023-05-20T12:13:17;967.4;;;32.8;31.3
51227;BME280;42714;48.260;10.980;2023-05-20T12:18:18;967.3;;;33.5;29.7
51227;BME280;42714;48.260;10.980;2023-05-20T12:23:19;967.4;;;32.1;30.0
51227;BME280;42714;48.260;10.980;2023-05-20T12:28:20;967.2;;;32.2;31.5
51227;BME280;42714;48.260;10.980;2023-05-20T12:33:21;967.2;;;33.6;30.3
51227;BME280;42714;48.260;10.980;2023-05-20T12:38:22;967.2;;;34.3;28.0
51227;BME280;42714;48.260;10.980;2023-05-20T12:43:23;967.2;;;34.3;29.5
51227;BME280;42714;48.260;10.980;2023-05-20T12:48:24;967.1;;;35.0;28.0
51227;BME280;42714;48.260;10.980;2023-05-20T12:53:25;967.0;;;34.9;28.9
51227;BME280;42714;48.260;10.980;2023-05-20T12:58:26;967.1;;;34.8;29.0
51227;BME280;42714;48.260;10.980;2023-05-20T13:03:27;966.9;;;35.7;27.0
51227;BME280;42714;48.260;10.980;2023-05-20T13:08:28;966.8;;;35.1;28.1
51227;BME280;42714;48.260;10.980;2023-05-20T13:13:29;966.8;;;34.8;27.8
51227;BME280;42714;48.260;10.980;2023-05-20T13:18:30;966.7;;;35.3;27.1
51227;BME280;42714;48.260;10.980;2023-05-20T13:23:31;966.7;;;34.7;27.0
51227;BME280;42714;48.260;10.980;2023-05-20T13:28:32;966.7;;;34.5;28.2
51227;BME280;42714;48.260;10.980;2023-05-20T13:33:33;966.6;;;34.8;27.7
51227;BME280;42714;48.260;10.980;2023-05-20T13:38:34;966.5;;;32.8;30.6
51227;BME280;42714;48.260;10.980;2023-05-20T13:43:35;966.5;;;32.1;31.9
51227;BME280;42714;48.260;10.980;2023-05-20T13:48:36;966.7;;;30.1;33.8
51227;BME280;42714;48.260;10.980;2023-05-20T13:53:37;966.5;;;28.3;38.0
51227;BME280;42714;48.260;10.980;2023-05-20T13:58:38;966.6;;;27.2;41.5
51227;BME280;42714;48.260;10.980;2023-05-20T14:03:40;966.4;;;28.0;39.6
51227;BME280;42714;48.260;10.980;2023-05-20T14:08:40;966.4;;;27.4;42.2
51227;BME280;42714;48.260;10.980;2023-05-20T14:13:41;966.4;;;27.6;40.1
51227;BME280;42714;48.260;10.980;2023-05-20T14:18:42;966.3;;;27.0;42.2
51227;BME280;42714;48.260;10.980;2023-05-20T14:23:43;966.2;;;26.9;43.5
51227;BME280;42714;48.260;10.980;2023-05-20T14:28:44;966.1;;;27.1;42.5
51227;BME280;42714;48.260;10.980;2023-05-20T14:33:45;966.1;;;27.1;42.4
51227;BME280;42714;48.260;10.980;2023-05-20T14:38:46;966.2;;;27.3;39.8
51227;BME280;42714;48.260;10.980;2023-05-20T14:43:47;966.1;;;26.8;40.1
51227;BME280;42714;48.260;10.980;2023-05-20T14:48:48;966.1;;;27.1;38.2
51227;BME280;42714;48.260;10.980;2023-05-20T14:53:49;966.1;;;27.1;39.8
51227;BME280;42714;48.260;10.980;2023-05-20T14:58:50;966.1;;;27.4;38.0
51227;BME280;42714;48.260;10.980;2023-05-20T15:03:51;966.1;;;26.6;40.4
51227;BME280;42714;48.260;10.980;2023-05-20T15:08:52;966.1;;;26.3;40.8
51227;BME280;42714;48.260;10.980;2023-05-20T15:13:53;966.2;;;26.4;40.6
51227;BME280;42714;48.260;10.980;2023-05-20T15:18:54;966.2;;;26.5;41.3
51227;BME280;42714;48.260;10.980;2023-05-20T15:23:56;966.2;;;26.1;40.7
51227;BME280;42714;48.260;10.980;2023-05-20T15:28:56;966.3;;;25.6;41.3
51227;BME280;42714;48.260;10.980;2023-05-20T15:33:57;966.4;;;25.2;44.8
51227;BME280;42714;48.260;10.980;2023-05-20T15:38:58;966.3;;;24.8;45.5
51227;BME280;42714;48.260;10.980;2023-05-20T15:43:59;966.2;;;24.7;47.9
51227;BME280;42714;48.260;10.980;2023-05-20T15:49:00;966.3;;;24.6;46.7
51227;BME280;42714;48.260;10.980;2023-05-20T15:54:01;966.3;;;24.4;49.1
51227;BME280;42714;48.260;10.980;2023-05-20T15:59:02;966.3;;;24.3;50.0
51227;BME280;42714;48.260;10.980;2023-05-20T16:04:03;966.3;;;24.3;51.4
51227;BME280;42714;48.260;10.980;2023-05-20T16:09:04;966.2;;;23.9;57.8
51227;BME280;42714;48.260;10.980;2023-05-20T16:14:05;966.2;;;23.9;58.4
51227;BME280;42714;48.260;10.980;2023-05-20T16:19:06;966.1;;;23.8;59.5
51227;BME280;42714;48.260;10.980;2023-05-20T16:24:07;966.1;;;23.9;60.7
51227;BME280;42714;48.260;10.980;2023-05-20T16:29:08;966.1;;;23.7;62.2
51227;BME280;42714;48.260;10.980;2023-05-20T16:34:09;966.1;;;23.5;66.3
51227;BME280;42714;48.260;10.980;2023-05-20T16:39:11;966.1;;;23.3;68.2
51227;BME280;42714;48.260;10.980;2023-05-20T16:44:11;966.1;;;23.2;69.8
51227;BME280;42714;48.260;10.980;2023-05-20T16:49:12;966.1;;;23.1;71.8
51227;BME280;42714;48.260;10.980;2023-05-20T16:54:13;966.1;;;22.9;74.1
51227;BME280;42714;48.260;10.980;2023-05-20T16:59:14;966.2;;;22.7;74.9
51227;BME280;42714;48.260;10.980;2023-05-20T17:04:15;966.2;;;22.7;74.8
51227;BME280;42714;48.260;10.980;2023-05-20T17:09:16;966.3;;;22.5;75.9
51227;BME280;42714;48.260;10.980;2023-05-20T17:14:17;966.3;;;22.6;74.8
51227;BME280;42714;48.260;10.980;2023-05-20T17:19:18;966.3;;;22.4;75.8
51227;BME280;42714;48.260;10.980;2023-05-20T17:24:19;966.4;;;22.2;78.7
51227;BME280;42714;48.260;10.980;2023-05-20T17:29:20;966.3;;;22.2;76.5
51227;BME280;42714;48.260;10.980;2023-05-20T17:34:21;966.4;;;22.0;80.1
51227;BME280;42714;48.260;10.980;2023-05-20T17:39:22;966.4;;;21.8;80.1
51227;BME280;42714;48.260;10.980;2023-05-20T17:44:23;966.4;;;21.6;83.6
51227;BME280;42714;48.260;10.980;2023-05-20T17:49:24;966.4;;;21.5;83.6
51227;BME280;42714;48.260;10.980;2023-05-20T17:54:25;966.5;;;21.2;87.4
51227;BME280;42714;48.260;10.980;2023-05-20T17:59:26;966.5;;;21.0;90.5
51227;BME280;42714;48.260;10.980;2023-05-20T18:04:27;966.5;;;21.0;92.0
51227;BME280;42714;48.260;10.980;2023-05-20T18:09:29;966.5;;;20.7;96.1
51227;BME280;42714;48.260;10.980;2023-05-20T18:14:29;966.5;;;20.6;98.6
51227;BME280;42714;48.260;10.980;2023-05-20T18:19:30;966.5;;;20.5;100.0
51227;BME280;42714;48.260;10.980;2023-05-20T18:24:31;966.5;;;20.3;100.0
51227;BME280;42714;48.260;10.980;2023-05-20T18:29:32;966.5;;;20.1;100.0
51227;BME280;42714;48.260;10.980;2023-05-20T18:34:33;966.5;;;20.0;100.0
51227;BME280;42714;48.260;10.980;2023-05-20T18:39:35;966.5;;;19.9;100.0
51227;BME280;42714;48.260;10.980;2023-05-20T18:44:36;966.5;;;19.7;100.0
51227;BME280;42714;48.260;10.980;2023-05-20T18:49:37;966.5;;;19.6;100.0
51227;BME280;42714;48.260;10.980;2023-05-20T18:54:38;966.5;;;19.5;100.0
51227;BME280;42714;48.260;10.980;2023-05-20T18:59:39;966.5;;;19.3;100.0
51227;BME280;42714;48.260;10.980;2023-05-20T19:04:40;966.5;;;19.2;100.0
51227;BME280;42714;48.260;10.980;2023-05-20T19:09:41;966.6;;;19.1;100.0
51227;BME280;42714;48.260;10.980;2023-05-20T19:14:42;966.6;;;19.0;100.0
51227;BME280;42714;48.260;10.980;2023-05-20T19:19:43;966.6;;;18.9;100.0
51227;BME280;42714;48.260;10.980;2023-05-20T19:24:44;966.7;;;18.8;100.0
51227;BME280;42714;48.260;10.980;2023-05-20T19:29:45;966.7;;;18.9;100.0
51227;BME280;42714;48.260;10.980;2023-05-20T19:34:46;966.7;;;18.7;100.0
51227;BME280;42714;48.260;10.980;2023-05-20T19:39:47;966.7;;;18.6;100.0
51227;BME280;42714;48.260;10.980;2023-05-20T19:44:48;966.7;;;18.5;100.0
51227;BME280;42714;48.260;10.980;2023-05-20T19:49:49;966.7;;;18.6;100.0
51227;BME280;42714;48.260;10.980;2023-05-20T19:54:50;966.8;;;18.5;100.0
51227;BME280;42714;48.260;10.980;2023-05-20T19:59:51;966.8;;;18.4;100.0
51227;BME280;42714;48.260;10.980;2023-05-20T20:04:52;966.8;;;18.7;100.0
51227;BME280;42714;48.260;10.980;2023-05-20T20:09:53;966.8;;;18.5;100.0
51227;BME280;42714;48.260;10.980;2023-05-20T20:14:54;966.9;;;18.4;100.0
51227;BME280;42714;48.260;10.980;2023-05-20T20:19:55;966.8;;;18.5;100.0
51227;BME280;42714;48.260;10.980;2023-05-20T20:24:56;966.8;;;18.2;100.0
51227;BME280;42714;48.260;10.980;2023-05-20T20:29:57;966.9;;;18.2;100.0
51227;BME280;42714;48.260;10.980;2023-05-20T20:34:58;966.8;;;18.1;100.0
51227;BME280;42714;48.260;10.980;2023-05-20T20:39:59;966.8;;;18.0;100.0
51227;BME280;42714;48.260;10.980;2023-05-20T20:45:00;966.8;;;18.1;100.0
51227;BME280;42714;48.260;10.980;2023-05-20T20:50:01;966.9;;;18.0;100.0
51227;BME280;42714;48.260;10.980;2023-05-20T20:55:02;966.9;;;17.9;100.0
51227;BME280;42714;48.260;10.980;2023-05-20T21:00:03;966.8;;;17.8;100.0
51227;BME280;42714;48.260;10.980;2023-05-20T21:05:04;966.9;;;17.8;100.0
51227;BME280;42714;48.260;10.980;2023-05-20T21:10:05;966.8;;;17.7;100.0
51227;BME280;42714;48.260;10.980;2023-05-20T21:25:08;966.8;;;17.4;100.0
51227;BME280;42714;48.260;10.980;2023-05-20T21:30:10;966.8;;;17.4;100.0
51227;BME280;42714;48.260;10.980;2023-05-20T21:35:10;966.7;;;17.5;100.0
51227;BME280;42714;48.260;10.980;2023-05-20T21:40:12;966.7;;;17.2;100.0
51227;BME280;42714;48.260;10.980;2023-05-20T21:45:12;966.7;;;17.2;100.0
51227;BME280;42714;48.260;10.980;2023-05-20T21:50:13;966.7;;;17.2;100.0
51227;BME280;42714;48.260;10.980;2023-05-20T21:55:14;966.8;;;17.0;100.0
51227;BME280;42714;48.260;10.980;2023-05-20T22:00:16;966.8;;;17.3;100.0
51227;BME280;42714;48.260;10.980;2023-05-20T22:05:16;966.7;;;17.1;100.0
51227;BME280;42714;48.260;10.980;2023-05-20T22:10:17;966.6;;;17.1;100.0
51227;BME280;42714;48.260;10.980;2023-05-20T22:15:18;966.6;;;17.3;100.0
51227;BME280;42714;48.260;10.980;2023-05-20T22:20:19;966.6;;;17.1;100.0
51227;BME280;42714;48.260;10.980;2023-05-20T22:25:20;966.5;;;17.1;100.0
51227;BME280;42714;48.260;10.980;2023-05-20T22:30:21;966.5;;;16.9;100.0
51227;BME280;42714;48.260;10.980;2023-05-20T22:35:22;966.5;;;16.8;100.0
51227;BME280;42714;48.260;10.980;2023-05-20T22:40:23;966.5;;;16.8;100.0
51227;BME280;42714;48.260;10.980;2023-05-20T22:45:24;966.5;;;16.6;100.0
51227;BME280;42714;48.260;10.980;2023-05-20T22:50:25;966.4;;;16.9;100.0
51227;BME280;42714;48.260;10.980;2023-05-20T22:55:26;966.4;;;16.6;100.0
51227;BME280;42714;48.260;10.980;2023-05-20T23:00:27;966.3;;;16.6;100.0
51227;BME280;42714;48.260;10.980;2023-05-20T23:05:28;966.4;;;16.7;100.0
51227;BME280;42714;48.260;10.980;2023-05-20T23:10:29;966.3;;;16.5;100.0
51227;BME280;42714;48.260;10.980;2023-05-20T23:15:30;966.2;;;16.5;100.0
51227;BME280;42714;48.260;10.980;2023-05-20T23:20:31;966.2;;;16.3;100.0
51227;BME280;42714;48.260;10.980;2023-05-20T23:25:32;966.2;;;16.2;100.0
51227;BME280;42714;48.260;10.980;2023-05-20T23:30:33;966.2;;;16.1;100.0
51227;BME280;42714;48.260;10.980;2023-05-20T23:35:34;966.2;;;16.3;100.0
51227;BME280;42714;48.260;10.980;2023-05-20T23:40:35;966.2;;;16.0;100.0
51227;BME280;42714;48.260;10.980;2023-05-20T23:45:36;966.2;;;16.2;100.0
51227;BME280;42714;48.260;10.980;2023-05-20T23:50:37;966.1;;;16.3;100.0
51227;BME280;42714;48.260;10.980;2023-05-20T23:55:38;966.1;;;16.1;100.0
